Time;durP1;ratioP1;P1;durP2;ratioP2;P2;SDS_P1;SDS_P2;PMS_P1;PMS_P2;Temp;Humidity;BMP_temperature;BMP_pressure;BME280_temperature;BME280_humidity;BME280_pressure;Samples;Min_cycle;Max_cycle;Signal;HPM_P1;HPM_P2
2023/07/23 00:02:16;;;;;;;6.85;5.18;;;;;;;;;;5114208;28;20046;-85
2023/07/23 00:04:42;;;;;;;6.60;4.55;;;;;;;;;;5117060;28;20093;-85
2023/07/23 00:07:08;;;;;;;7.03;4.68;;;;;;;;;;5117270;28;20062;-85
2023/07/23 00:09:34;;;;;;;7.18;4.68;;;;;;;;;;5099843;28;20046;-86
2023/07/23 00:12:01;;;;;;;8.45;5.50;;;;;;;;;;5117339;28;20044;-86
2023/07/23 00:14:27;;;;;;;5.22;4.72;;;;;;;;;;5117146;28;20051;-86
2023/07/23 00:16:53;;;;;;;5.10;4.68;;;;;;;;;;5116201;28;20051;-86
2023/07/23 00:19:19;;;;;;;5.00;4.55;;;;;;;;;;5099804;28;20143;-86
2023/07/23 00:21:49;;;;;;;5.85;4.22;;;;;;;;;;5115895;28;20050;-85
2023/07/23 00:24:15;;;;;;;4.93;4.22;;;;;;;;;;5117224;28;20052;-87
2023/07/23 00:26:41;;;;;;;5.68;3.90;;;;;;;;;;5117730;28;20047;-86
2023/07/23 00:29:07;;;;;;;6.60;4.32;;;;;;;;;;5116180;28;20044;-85
2023/07/23 00:31:33;;;;;;;10.75;4.55;;;;;;;;;;5115959;28;20069;-86
2023/07/23 00:33:59;;;;;;;6.38;3.83;;;;;;;;;;5116915;28;20147;-87
2023/07/23 00:36:26;;;;;;;5.53;3.72;;;;;;;;;;5099650;28;20051;-86
2023/07/23 00:38:52;;;;;;;4.68;4.13;;;;;;;;;;5116662;28;20044;-86
2023/07/23 00:41:18;;;;;;;4.43;3.63;;;;;;;;;;5117682;28;20063;-87
2023/07/23 00:43:44;;;;;;;3.95;3.50;;;;;;;;;;5115567;28;20131;-86
2023/07/23 00:46:10;;;;;;;5.13;4.10;;;;;;;;;;5117500;28;20187;-86
2023/07/23 00:48:36;;;;;;;4.63;3.17;;;;;;;;;;5115209;28;20040;-86
2023/07/23 00:51:03;;;;;;;4.70;3.67;;;;;;;;;;5116326;28;20354;-86
2023/07/23 00:53:29;;;;;;;3.90;3.55;;;;;;;;;;5115373;28;20083;-86
2023/07/23 00:55:55;;;;;;;4.50;3.85;;;;;;;;;;5115645;28;20055;-86
2023/07/23 00:58:21;;;;;;;4.20;3.90;;;;;;;;;;5116887;28;20130;-86
2023/07/23 01:00:48;;;;;;;4.95;3.75;;;;;;;;;;5115855;28;20051;-87
2023/07/23 01:03:14;;;;;;;4.72;4.32;;;;;;;;;;5115863;28;20109;-85
2023/07/23 01:05:42;;;;;;;4.60;4.20;;;;;;;;;;5115397;28;20043;-85
2023/07/23 01:08:08;;;;;;;7.38;4.15;;;;;;;;;;5097838;28;20095;-84
2023/07/23 01:10:34;;;;;;;12.13;4.75;;;;;;;;;;5114780;28;20073;-84
2023/07/23 01:13:01;;;;;;;5.03;4.40;;;;;;;;;;5116388;28;20392;-85
2023/07/23 01:15:27;;;;;;;6.55;4.65;;;;;;;;;;5115543;28;20154;-84
2023/07/23 01:17:54;;;;;;;5.55;4.35;;;;;;;;;;5116463;28;20142;-87
2023/07/23 01:20:20;;;;;;;5.80;4.57;;;;;;;;;;5116199;28;20052;-87
2023/07/23 01:22:47;;;;;;;5.78;4.47;;;;;;;;;;5099665;28;20058;-86
2023/07/23 01:25:13;;;;;;;7.35;5.78;;;;;;;;;;5117220;28;20051;-86
2023/07/23 01:27:39;;;;;;;6.05;4.68;;;;;;;;;;5116326;28;20055;-86
2023/07/23 01:30:08;;;;;;;4.88;4.50;;;;;;;;;;5114793;28;20415;-86
2023/07/23 01:32:34;;;;;;;6.95;5.68;;;;;;;;;;5116475;28;20057;-85
2023/07/23 01:35:03;;;;;;;6.95;5.72;;;;;;;;;;5116353;28;20047;-85
2023/07/23 01:37:29;;;;;;;6.40;5.35;;;;;;;;;;5114580;28;20047;-84
2023/07/23 01:39:55;;;;;;;5.55;5.03;;;;;;;;;;5116156;28;20554;-84
2023/07/23 01:42:21;;;;;;;5.35;4.80;;;;;;;;;;5115999;28;20079;-84
2023/07/23 01:44:47;;;;;;;6.47;4.72;;;;;;;;;;5115939;28;20040;-84
2023/07/23 01:47:13;;;;;;;6.20;4.50;;;;;;;;;;5116291;28;20134;-85
2023/07/23 01:49:39;;;;;;;5.03;4.53;;;;;;;;;;5115464;28;20497;-85
2023/07/23 01:52:06;;;;;;;7.22;5.07;;;;;;;;;;5115945;28;20043;-86
2023/07/23 01:54:32;;;;;;;5.25;4.75;;;;;;;;;;5115091;28;20051;-85
2023/07/23 01:56:58;;;;;;;5.53;4.53;;;;;;;;;;5116365;28;20043;-86
2023/07/23 01:59:24;;;;;;;5.63;4.65;;;;;;;;;;5117151;28;20079;-86
2023/07/23 02:01:50;;;;;;;5.82;5.15;;;;;;;;;;5115207;28;20048;-86
2023/07/23 02:04:16;;;;;;;7.65;6.70;;;;;;;;;;5116251;28;20131;-86
2023/07/23 02:06:42;;;;;;;7.35;5.70;;;;;;;;;;5115517;28;20082;-85
2023/07/23 02:09:09;;;;;;;7.03;6.43;;;;;;;;;;5115435;28;20051;-86
2023/07/23 02:11:35;;;;;;;8.82;6.10;;;;;;;;;;5116009;28;20397;-86
2023/07/23 02:14:01;;;;;;;6.57;5.85;;;;;;;;;;5114711;28;20489;-86
2023/07/23 02:16:27;;;;;;;6.72;5.45;;;;;;;;;;5116452;28;20443;-86
2023/07/23 02:18:53;;;;;;;6.65;5.82;;;;;;;;;;5115894;28;20508;-86
2023/07/23 02:21:19;;;;;;;6.85;5.40;;;;;;;;;;5115627;28;20072;-86
2023/07/23 02:23:45;;;;;;;7.45;6.00;;;;;;;;;;5114420;28;20091;-85
2023/07/23 02:26:12;;;;;;;7.65;6.18;;;;;;;;;;5115108;28;20047;-86
2023/07/23 02:28:43;;;;;;;6.53;5.88;;;;;;;;;;5114593;28;20437;-86
2023/07/23 02:31:09;;;;;;;6.68;6.05;;;;;;;;;;5115547;28;20047;-85
2023/07/23 02:33:36;;;;;;;7.68;6.28;;;;;;;;;;5114732;28;20047;-85
2023/07/23 02:36:02;;;;;;;6.78;5.68;;;;;;;;;;5115612;28;20101;-85
2023/07/23 02:38:29;;;;;;;7.47;6.10;;;;;;;;;;5115004;28;20554;-85
2023/07/23 02:40:58;;;;;;;7.82;6.63;;;;;;;;;;5115117;28;20104;-85
2023/07/23 02:43:25;;;;;;;7.60;6.53;;;;;;;;;;5114238;28;20074;-85
2023/07/23 02:45:51;;;;;;;7.07;6.38;;;;;;;;;;5114669;28;20055;-85
2023/07/23 02:48:17;;;;;;;7.43;6.30;;;;;;;;;;5113988;28;20080;-85
2023/07/23 02:50:44;;;;;;;8.13;6.85;;;;;;;;;;5115077;28;20047;-85
2023/07/23 02:53:10;;;;;;;8.80;7.75;;;;;;;;;;5113616;28;20388;-84
2023/07/23 02:55:36;;;;;;;8.38;7.13;;;;;;;;;;5113753;28;20044;-84
2023/07/23 02:58:03;;;;;;;7.20;5.97;;;;;;;;;;5114857;28;20078;-85
2023/07/23 03:00:30;;;;;;;7.32;6.65;;;;;;;;;;5114892;28;20055;-85
2023/07/23 03:02:56;;;;;;;7.63;6.40;;;;;;;;;;5097310;28;20039;-85
2023/07/23 03:05:24;;;;;;;7.40;6.80;;;;;;;;;;5115434;28;20043;-85
2023/07/23 03:07:52;;;;;;;7.85;7.05;;;;;;;;;;5115886;28;20047;-85
2023/07/23 03:10:18;;;;;;;10.45;6.18;;;;;;;;;;5113624;28;20489;-85
2023/07/23 03:12:44;;;;;;;8.02;6.30;;;;;;;;;;5114902;28;20050;-85
2023/07/23 03:15:10;;;;;;;7.20;6.22;;;;;;;;;;5115156;28;20138;-85
2023/07/23 03:17:36;;;;;;;6.72;6.22;;;;;;;;;;5114623;28;20054;-85
2023/07/23 03:20:04;;;;;;;7.50;6.07;;;;;;;;;;5114600;28;20062;-85
2023/07/23 03:22:30;;;;;;;7.80;5.35;;;;;;;;;;5114086;28;20048;-85
2023/07/23 03:24:56;;;;;;;6.72;6.13;;;;;;;;;;5114685;28;20067;-85
2023/07/23 03:27:22;;;;;;;6.75;5.93;;;;;;;;;;5113295;28;20044;-86
2023/07/23 03:29:48;;;;;;;5.90;5.13;;;;;;;;;;5114814;28;20047;-85
2023/07/23 03:32:14;;;;;;;6.10;5.15;;;;;;;;;;5113853;28;20051;-85
2023/07/23 03:34:40;;;;;;;6.78;5.65;;;;;;;;;;5115900;28;20043;-85
2023/07/23 03:37:06;;;;;;;6.25;5.70;;;;;;;;;;5115058;28;20043;-85
2023/07/23 03:39:32;;;;;;;6.80;5.22;;;;;;;;;;5117402;28;20048;-85
2023/07/23 03:41:59;;;;;;;5.78;5.28;;;;;;;;;;5117509;28;20100;-85
2023/07/23 03:44:25;;;;;;;6.22;5.63;;;;;;;;;;5118496;28;20052;-85
2023/07/23 03:47:09;;;;;;;8.10;5.55;;;;;;;;;;5118055;28;20046;-85
2023/07/23 03:49:35;;;;;;;6.15;5.55;;;;;;;;;;5118152;28;20391;-85
2023/07/23 03:52:02;;;;;;;8.27;6.20;;;;;;;;;;5118400;28;20039;-85
2023/07/23 03:54:28;;;;;;;5.90;5.40;;;;;;;;;;5118001;28;20100;-85
2023/07/23 03:56:54;;;;;;;5.72;5.30;;;;;;;;;;5116901;28;20044;-85
2023/07/23 03:59:20;;;;;;;6.35;5.00;;;;;;;;;;5118774;28;20052;-85
2023/07/23 04:01:46;;;;;;;6.07;5.45;;;;;;;;;;5116789;28;20059;-85
2023/07/23 04:04:12;;;;;;;8.50;5.60;;;;;;;;;;5116421;28;20051;-85
2023/07/23 04:06:39;;;;;;;6.75;4.70;;;;;;;;;;5100184;28;20157;-85
2023/07/23 04:09:05;;;;;;;5.95;5.45;;;;;;;;;;5116443;28;20473;-85
2023/07/23 04:11:31;;;;;;;6.47;5.88;;;;;;;;;;5117312;28;20046;-84
2023/07/23 04:13:57;;;;;;;6.18;5.65;;;;;;;;;;5115938;28;20130;-85
2023/07/23 04:16:23;;;;;;;6.43;5.75;;;;;;;;;;5099316;28;20481;-85
2023/07/23 04:18:50;;;;;;;11.00;6.30;;;;;;;;;;5116782;28;20036;-85
2023/07/23 04:21:18;;;;;;;7.43;6.25;;;;;;;;;;5116193;28;20048;-85
2023/07/23 04:23:47;;;;;;;8.70;6.63;;;;;;;;;;5116840;28;20055;-86
2023/07/23 04:26:14;;;;;;;6.72;6.22;;;;;;;;;;5117162;28;20056;-85
2023/07/23 04:28:40;;;;;;;7.10;6.47;;;;;;;;;;5116324;28;20460;-85
2023/07/23 04:31:06;;;;;;;6.95;6.35;;;;;;;;;;5117022;28;20046;-85
2023/07/23 04:33:32;;;;;;;7.70;6.90;;;;;;;;;;5082652;28;20058;-84
2023/07/23 04:35:59;;;;;;;6.95;6.32;;;;;;;;;;5117539;28;20552;-85
2023/07/23 04:38:25;;;;;;;7.80;6.78;;;;;;;;;;5117344;28;20046;-84
2023/07/23 04:40:52;;;;;;;8.00;6.97;;;;;;;;;;5117521;28;20118;-85
2023/07/23 04:43:18;;;;;;;7.90;5.50;;;;;;;;;;5117187;28;20070;-85
2023/07/23 04:45:44;;;;;;;8.15;7.03;;;;;;;;;;5115979;28;20180;-84
2023/07/23 04:48:12;;;;;;;8.85;6.60;;;;;;;;;;5116111;28;20043;-84
2023/07/23 04:50:38;;;;;;;8.52;6.88;;;;;;;;;;5117622;27;20465;-84
2023/07/23 04:53:05;;;;;;;7.50;6.32;;;;;;;;;;5117201;28;20047;-84
2023/07/23 04:55:31;;;;;;;8.32;7.53;;;;;;;;;;5117561;28;20048;-84
2023/07/23 04:57:57;;;;;;;8.05;6.82;;;;;;;;;;5099327;28;20109;-84
2023/07/23 05:00:23;;;;;;;7.93;7.22;;;;;;;;;;5117415;28;20047;-85
2023/07/23 05:02:49;;;;;;;10.13;6.63;;;;;;;;;;5117066;28;20084;-84
2023/07/23 05:05:15;;;;;;;8.43;7.63;;;;;;;;;;5116285;28;20096;-85
2023/07/23 05:07:41;;;;;;;8.35;6.60;;;;;;;;;;5100703;28;20047;-85
2023/07/23 05:10:08;;;;;;;7.35;6.65;;;;;;;;;;5117610;28;20040;-84
2023/07/23 05:12:34;;;;;;;8.57;6.57;;;;;;;;;;5115941;28;20081;-84
2023/07/23 05:15:11;;;;;;;8.45;6.40;;;;;;;;;;5116189;28;20047;-85
2023/07/23 05:17:37;;;;;;;8.57;6.30;;;;;;;;;;5115738;28;20047;-85
2023/07/23 05:20:06;;;;;;;7.28;6.57;;;;;;;;;;5114809;28;20054;-84
2023/07/23 05:22:32;;;;;;;7.88;7.13;;;;;;;;;;5115761;28;20149;-85
2023/07/23 05:24:58;;;;;;;8.93;6.50;;;;;;;;;;5115318;28;20047;-85
2023/07/23 05:27:26;;;;;;;8.45;7.47;;;;;;;;;;5116796;28;20542;-85
2023/07/23 05:29:52;;;;;;;7.68;6.80;;;;;;;;;;5116244;28;20051;-85
2023/07/23 05:32:18;;;;;;;7.05;6.45;;;;;;;;;;5114968;28;20060;-84
2023/07/23 05:34:44;;;;;;;7.18;6.47;;;;;;;;;;5115033;28;20050;-85
2023/07/23 05:37:10;;;;;;;7.47;6.72;;;;;;;;;;5115642;28;20047;-84
2023/07/23 05:39:36;;;;;;;8.07;7.20;;;;;;;;;;5114555;28;20470;-85
2023/07/23 05:42:02;;;;;;;9.02;7.88;;;;;;;;;;5114331;28;20047;-84
2023/07/23 05:44:28;;;;;;;6.95;6.30;;;;;;;;;;5114131;28;20047;-84
2023/07/23 05:46:54;;;;;;;7.28;6.50;;;;;;;;;;5114411;28;20040;-85
2023/07/23 05:49:21;;;;;;;7.80;6.10;;;;;;;;;;5115160;28;20051;-84
2023/07/23 05:51:47;;;;;;;6.82;6.05;;;;;;;;;;5113880;28;20552;-83
2023/07/23 05:54:13;;;;;;;6.68;6.07;;;;;;;;;;5115133;28;20517;-83
2023/07/23 05:56:39;;;;;;;9.00;6.53;;;;;;;;;;5114825;28;20035;-83
2023/07/23 05:59:05;;;;;;;9.82;6.55;;;;;;;;;;5115057;28;20070;-83
2023/07/23 06:01:31;;;;;;;8.57;6.72;;;;;;;;;;5114905;28;20040;-83
2023/07/23 06:03:57;;;;;;;9.68;6.88;;;;;;;;;;5115205;28;20079;-83
2023/07/23 06:06:24;;;;;;;7.30;6.40;;;;;;;;;;5114204;28;20047;-83
2023/07/23 06:08:50;;;;;;;7.43;6.28;;;;;;;;;;5098119;28;20047;-84
2023/07/23 06:11:16;;;;;;;8.00;6.55;;;;;;;;;;5096782;28;20040;-84
2023/07/23 06:13:42;;;;;;;7.38;6.53;;;;;;;;;;5114535;28;20088;-85
2023/07/23 06:16:08;;;;;;;6.47;5.93;;;;;;;;;;5115690;28;20468;-84
2023/07/23 06:18:35;;;;;;;7.22;6.60;;;;;;;;;;5115057;28;20134;-85
2023/07/23 06:21:05;;;;;;;7.80;5.80;;;;;;;;;;5115959;28;20075;-85
2023/07/23 06:23:35;;;;;;;7.50;6.55;;;;;;;;;;5114727;28;20076;-85
2023/07/23 06:26:01;;;;;;;8.25;6.47;;;;;;;;;;5097574;28;20424;-85
2023/07/23 06:28:27;;;;;;;10.40;6.75;;;;;;;;;;5114079;28;20051;-84
2023/07/23 06:30:53;;;;;;;9.02;6.53;;;;;;;;;;5113584;28;20055;-85
2023/07/23 06:33:20;;;;;;;6.72;6.10;;;;;;;;;;5114843;28;20086;-85
2023/07/23 06:35:48;;;;;;;8.00;7.10;;;;;;;;;;5114283;28;20489;-84
2023/07/23 06:38:14;;;;;;;7.97;6.60;;;;;;;;;;5115710;28;20043;-84
2023/07/23 06:40:47;;;;;;;7.55;6.03;;;;;;;;;;5114071;28;20048;-85
2023/07/23 06:43:14;;;;;;;6.90;6.20;;;;;;;;;;5114506;28;20046;-84
2023/07/23 06:45:40;;;;;;;7.57;6.03;;;;;;;;;;5113413;28;20043;-86
2023/07/23 06:48:06;;;;;;;7.55;6.85;;;;;;;;;;5113762;28;20485;-83
2023/07/23 06:50:32;;;;;;;6.47;5.88;;;;;;;;;;5114702;28;20039;-83
2023/07/23 06:52:59;;;;;;;6.55;5.78;;;;;;;;;;5114325;28;20048;-86
2023/07/23 06:55:25;;;;;;;6.18;5.55;;;;;;;;;;5114016;28;20063;-87
2023/07/23 06:57:51;;;;;;;7.22;6.15;;;;;;;;;;5080513;28;20075;-89
2023/07/23 07:00:17;;;;;;;7.30;6.07;;;;;;;;;;5115176;28;20050;-89
2023/07/23 07:02:43;;;;;;;7.70;7.07;;;;;;;;;;5096815;28;20050;-86
2023/07/23 07:05:10;;;;;;;8.75;6.22;;;;;;;;;;5114154;28;20459;-89
2023/07/23 07:07:37;;;;;;;8.32;5.63;;;;;;;;;;5114810;28;20048;-87
2023/07/23 07:10:06;;;;;;;6.00;5.50;;;;;;;;;;5114835;28;20059;-86
2023/07/23 07:12:32;;;;;;;6.90;6.10;;;;;;;;;;5117050;28;20142;-88
2023/07/23 07:14:58;;;;;;;6.43;5.82;;;;;;;;;;5117457;28;20388;-83
2023/07/23 07:17:24;;;;;;;12.07;7.45;;;;;;;;;;5118334;28;20046;-83
2023/07/23 07:19:50;;;;;;;6.70;6.13;;;;;;;;;;5117256;28;20452;-87
2023/07/23 07:22:17;;;;;;;8.48;6.57;;;;;;;;;;5118846;28;20048;-82
2023/07/23 07:24:43;;;;;;;8.60;6.30;;;;;;;;;;5116529;28;20060;-81
2023/07/23 07:27:10;;;;;;;6.88;6.25;;;;;;;;;;5117799;28;20430;-85
2023/07/23 07:29:39;;;;;;;6.97;6.30;;;;;;;;;;5118148;28;20169;-85
2023/07/23 07:32:07;;;;;;;6.63;6.00;;;;;;;;;;5117505;28;20051;-89
2023/07/23 07:34:33;;;;;;;7.82;6.57;;;;;;;;;;5117008;28;20131;-84
2023/07/23 07:37:00;;;;;;;7.10;6.13;;;;;;;;;;5100221;28;20039;-83
2023/07/23 07:39:26;;;;;;;8.77;6.20;;;;;;;;;;5117548;28;20147;-83
2023/07/23 07:41:56;;;;;;;6.93;6.07;;;;;;;;;;5116511;28;20477;-83
2023/07/23 07:44:22;;;;;;;9.10;6.28;;;;;;;;;;5116350;28;20053;-83
2023/07/23 07:46:48;;;;;;;8.57;5.93;;;;;;;;;;5116353;28;20504;-83
2023/07/23 07:49:15;;;;;;;7.82;7.05;;;;;;;;;;5116342;28;20104;-84
2023/07/23 07:51:43;;;;;;;11.27;7.63;;;;;;;;;;5116458;28;20172;-84
2023/07/23 07:54:09;;;;;;;6.95;6.32;;;;;;;;;;5117449;28;20051;-83
2023/07/23 07:56:36;;;;;;;12.05;7.60;;;;;;;;;;5117476;28;20090;-85
2023/07/23 07:59:04;;;;;;;7.97;7.28;;;;;;;;;;5116630;28;20424;-84
2023/07/23 08:01:30;;;;;;;7.93;7.07;;;;;;;;;;5118275;28;20089;-84
2023/07/23 08:03:56;;;;;;;6.88;6.28;;;;;;;;;;5117585;28;20061;-84
2023/07/23 08:06:24;;;;;;;7.32;6.65;;;;;;;;;;5117166;28;20047;-83
2023/07/23 08:08:50;;;;;;;7.82;6.63;;;;;;;;;;5116103;28;20054;-82
2023/07/23 08:11:16;;;;;;;6.50;5.82;;;;;;;;;;5115872;28;20039;-83
2023/07/23 08:13:43;;;;;;;8.90;6.15;;;;;;;;;;5117089;28;20083;-83
2023/07/23 08:16:12;;;;;;;7.45;5.90;;;;;;;;;;5116748;28;20043;-82
2023/07/23 08:18:38;;;;;;;9.45;5.95;;;;;;;;;;5116021;28;20044;-83
2023/07/23 08:21:05;;;;;;;7.32;5.10;;;;;;;;;;5115971;28;20052;-84
2023/07/23 08:23:31;;;;;;;6.50;5.88;;;;;;;;;;5081478;28;20117;-83
2023/07/23 08:25:58;;;;;;;5.93;5.30;;;;;;;;;;5116934;28;20056;-83
2023/07/23 08:28:28;;;;;;;6.57;4.85;;;;;;;;;;5115794;28;20481;-84
2023/07/23 08:30:56;;;;;;;6.07;5.55;;;;;;;;;;5117774;28;20050;-83
2023/07/23 08:33:23;;;;;;;6.10;5.50;;;;;;;;;;5099562;28;20083;-85
2023/07/23 08:35:49;;;;;;;5.38;4.88;;;;;;;;;;5116327;28;20047;-83
2023/07/23 08:38:15;;;;;;;6.97;5.43;;;;;;;;;;5117150;28;20385;-84
2023/07/23 08:40:43;;;;;;;7.18;5.75;;;;;;;;;;5116781;28;20134;-83
2023/07/23 08:43:18;;;;;;;9.93;6.00;;;;;;;;;;5098479;28;20126;-84
2023/07/23 08:45:47;;;;;;;7.82;6.13;;;;;;;;;;5115693;28;20131;-85
2023/07/23 08:48:23;;;;;;;8.10;5.35;;;;;;;;;;5115677;28;20493;-83
2023/07/23 08:50:49;;;;;;;5.25;4.70;;;;;;;;;;5116264;28;20039;-83
2023/07/23 08:53:16;;;;;;;5.13;4.72;;;;;;;;;;5115114;28;20083;-84
2023/07/23 08:55:46;;;;;;;5.82;5.32;;;;;;;;;;5099192;28;20051;-84
2023/07/23 08:58:16;;;;;;;5.75;5.25;;;;;;;;;;5115230;28;20043;-84
2023/07/23 09:00:43;;;;;;;6.90;5.57;;;;;;;;;;5115634;28;20084;-84
2023/07/23 09:03:10;;;;;;;5.22;4.72;;;;;;;;;;5098330;28;20134;-85
2023/07/23 09:05:38;;;;;;;5.95;5.35;;;;;;;;;;5114923;28;20132;-84
2023/07/23 09:08:04;;;;;;;6.22;5.07;;;;;;;;;;5098317;28;20052;-84
2023/07/23 09:10:30;;;;;;;5.68;5.18;;;;;;;;;;5082333;28;20047;-84
2023/07/23 09:12:56;;;;;;;5.72;5.10;;;;;;;;;;5115897;28;20152;-83
2023/07/23 09:15:22;;;;;;;2.38;2.17;;;;;;;;;;5115943;28;20468;-84
2023/07/23 09:17:51;;;;;;;3.63;2.47;;;;;;;;;;5098064;28;20051;-84
2023/07/23 09:20:18;;;;;;;4.68;2.30;;;;;;;;;;5114798;28;20130;-83
2023/07/23 09:22:45;;;;;;;3.78;1.92;;;;;;;;;;5115447;28;20044;-85
2023/07/23 09:25:11;;;;;;;3.75;1.95;;;;;;;;;;5115943;28;20081;-83
2023/07/23 09:27:38;;;;;;;2.40;1.50;;;;;;;;;;5097887;28;20043;-83
2023/07/23 09:30:04;;;;;;;3.20;1.55;;;;;;;;;;5115557;28;20055;-83
2023/07/23 09:32:30;;;;;;;2.67;2.25;;;;;;;;;;5097512;28;20047;-85
2023/07/23 09:34:58;;;;;;;3.55;2.25;;;;;;;;;;5115453;27;20055;-86
2023/07/23 09:37:27;;;;;;;3.67;3.15;;;;;;;;;;5114554;28;20093;-85
2023/07/23 09:39:56;;;;;;;4.32;2.38;;;;;;;;;;5114709;28;20043;-85
2023/07/23 09:42:23;;;;;;;4.47;2.42;;;;;;;;;;5097583;28;20111;-86
2023/07/23 09:44:49;;;;;;;1.73;1.38;;;;;;;;;;5097419;28;20081;-82
2023/07/23 09:47:15;;;;;;;3.65;1.63;;;;;;;;;;5114328;28;20062;-82
2023/07/23 09:49:42;;;;;;;1.67;1.58;;;;;;;;;;5116228;28;20152;-83
2023/07/23 09:52:09;;;;;;;1.27;1.17;;;;;;;;;;5114451;28;20051;-84
2023/07/23 09:54:36;;;;;;;2.08;0.70;;;;;;;;;;5080289;28;20047;-83
2023/07/23 09:57:02;;;;;;;1.60;0.98;;;;;;;;;;5115059;28;20052;-84
2023/07/23 09:59:29;;;;;;;2.03;1.00;;;;;;;;;;5114934;28;20079;-84
2023/07/23 10:01:55;;;;;;;2.55;1.20;;;;;;;;;;5114976;28;20468;-83
2023/07/23 10:04:22;;;;;;;1.70;1.52;;;;;;;;;;5115844;28;20117;-83
2023/07/23 10:06:48;;;;;;;2.70;2.60;;;;;;;;;;5114931;28;20126;-83
2023/07/23 10:09:16;;;;;;;2.58;2.38;;;;;;;;;;5113609;28;20043;-84
2023/07/23 10:11:42;;;;;;;2.75;2.15;;;;;;;;;;5113602;28;20079;-83
2023/07/23 10:14:08;;;;;;;2.42;2.28;;;;;;;;;;5114584;28;20043;-83
2023/07/23 10:16:40;;;;;;;2.38;2.25;;;;;;;;;;5096503;28;20058;-84
2023/07/23 10:19:07;;;;;;;2.80;2.60;;;;;;;;;;5114042;28;20141;-84
2023/07/23 10:21:34;;;;;;;2.72;2.30;;;;;;;;;;5113438;28;20126;-84
2023/07/23 10:24:01;;;;;;;2.53;2.40;;;;;;;;;;5096791;28;20052;-84
2023/07/23 10:26:28;;;;;;;2.30;2.17;;;;;;;;;;5113912;28;20058;-84
2023/07/23 10:28:58;;;;;;;2.60;2.38;;;;;;;;;;5112930;28;20529;-84
2023/07/23 10:31:28;;;;;;;2.55;2.45;;;;;;;;;;5096391;28;20080;-83
2023/07/23 10:33:54;;;;;;;2.33;2.13;;;;;;;;;;5113245;28;20119;-83
2023/07/23 10:36:22;;;;;;;3.53;3.22;;;;;;;;;;5113311;28;20576;-83
2023/07/23 10:38:48;;;;;;;3.08;2.53;;;;;;;;;;5113368;28;20055;-83
2023/07/23 10:41:14;;;;;;;3.80;3.50;;;;;;;;;;5113332;28;20051;-83
2023/07/23 10:43:45;;;;;;;3.50;3.30;;;;;;;;;;5079675;28;20043;-83
2023/07/23 10:46:18;;;;;;;3.22;3.03;;;;;;;;;;5112652;28;20044;-83
2023/07/23 10:48:49;;;;;;;3.75;3.28;;;;;;;;;;5114075;28;20169;-83
2023/07/23 10:51:16;;;;;;;3.05;2.85;;;;;;;;;;5113626;28;20455;-82
2023/07/23 10:53:55;;;;;;;3.40;3.17;;;;;;;;;;5113451;28;20044;-82
2023/07/23 10:56:26;;;;;;;3.72;3.28;;;;;;;;;;5113207;28;20388;-83
2023/07/23 10:58:56;;;;;;;3.42;3.13;;;;;;;;;;5113155;28;20423;-83
2023/07/23 11:01:23;;;;;;;3.78;3.50;;;;;;;;;;5112792;28;20417;-83
2023/07/23 11:03:49;;;;;;;3.15;2.95;;;;;;;;;;5096880;28;20195;-82
2023/07/23 11:06:45;;;;;;;3.83;3.53;;;;;;;;;;5113919;28;20082;-79
2023/07/23 11:09:11;;;;;;;3.65;3.35;;;;;;;;;;5095365;28;20100;-82
2023/07/23 11:11:39;;;;;;;5.10;4.68;;;;;;;;;;5112771;28;20504;-81
2023/07/23 11:14:28;;;;;;;5.15;4.25;;;;;;;;;;5095950;28;20140;-82
2023/07/23 11:16:56;;;;;;;4.45;4.05;;;;;;;;;;5083210;28;20056;-82
2023/07/23 11:19:26;;;;;;;4.32;4.00;;;;;;;;;;5095955;28;20128;-83
2023/07/23 11:21:54;;;;;;;5.18;3.67;;;;;;;;;;5112922;28;20055;-82
2023/07/23 11:24:21;;;;;;;3.90;3.60;;;;;;;;;;5113202;28;20420;-82
2023/07/23 11:26:47;;;;;;;4.47;3.50;;;;;;;;;;5113763;28;20467;-82
2023/07/23 11:29:14;;;;;;;4.97;3.00;;;;;;;;;;5112605;28;20412;-81
2023/07/23 11:31:40;;;;;;;3.65;3.17;;;;;;;;;;5112490;28;20044;-82
2023/07/23 11:34:07;;;;;;;3.45;3.10;;;;;;;;;;5112766;28;20044;-82
2023/07/23 11:36:33;;;;;;;4.43;3.65;;;;;;;;;;5113716;28;20044;-82
2023/07/23 11:39:00;;;;;;;2.90;2.70;;;;;;;;;;5113563;28;20043;-82
2023/07/23 11:41:37;;;;;;;2.85;2.40;;;;;;;;;;5113985;28;20492;-81
2023/07/23 11:44:03;;;;;;;3.85;2.78;;;;;;;;;;5113157;28;20086;-81
2023/07/23 11:46:33;;;;;;;4.38;3.00;;;;;;;;;;5112904;28;20541;-81
2023/07/23 11:49:03;;;;;;;3.85;3.47;;;;;;;;;;5095666;28;20096;-81
2023/07/23 11:51:31;;;;;;;2.45;2.25;;;;;;;;;;5095626;28;20077;-80
2023/07/23 11:54:07;;;;;;;1.20;1.05;;;;;;;;;;5112893;28;20044;-81
2023/07/23 11:56:37;;;;;;;2.15;2.03;;;;;;;;;;5112363;28;20106;-81
2023/07/23 11:59:04;;;;;;;3.78;1.20;;;;;;;;;;5114282;28;20100;-80
2023/07/23 12:01:31;;;;;;;2.60;1.52;;;;;;;;;;5116108;28;20481;-81
2023/07/23 12:03:59;;;;;;;1.42;1.25;;;;;;;;;;5117553;28;20044;-81
2023/07/23 12:06:28;;;;;;;1.27;1.00;;;;;;;;;;5116216;28;20084;-81
2023/07/23 12:08:54;;;;;;;1.50;1.30;;;;;;;;;;5117199;28;20073;-81
2023/07/23 12:11:22;;;;;;;2.78;1.00;;;;;;;;;;5099962;28;20047;-81
2023/07/23 12:13:52;;;;;;;1.77;1.10;;;;;;;;;;5115841;28;20043;-81
2023/07/23 12:16:38;;;;;;;4.03;1.27;;;;;;;;;;5099103;28;20488;-81
2023/07/23 12:19:07;;;;;;;1.58;1.02;;;;;;;;;;5116032;28;20055;-81
2023/07/23 12:21:34;;;;;;;1.20;0.80;;;;;;;;;;5116952;28;20069;-80
2023/07/23 12:24:20;;;;;;;1.60;0.88;;;;;;;;;;5082009;28;20477;-81
2023/07/23 12:26:47;;;;;;;2.03;0.93;;;;;;;;;;5115903;28;20047;-81
2023/07/23 12:29:14;;;;;;;1.27;0.88;;;;;;;;;;5115806;28;20100;-81
2023/07/23 12:31:45;;;;;;;0.80;0.80;;;;;;;;;;5115443;28;20043;-81
2023/07/23 12:34:12;;;;;;;0.98;0.70;;;;;;;;;;5115375;28;20096;-80
2023/07/23 12:36:38;;;;;;;0.95;0.82;;;;;;;;;;5116634;28;20048;-80
2023/07/23 12:39:10;;;;;;;1.00;0.70;;;;;;;;;;5115633;28;20040;-80
2023/07/23 12:41:36;;;;;;;0.80;0.68;;;;;;;;;;5116601;28;20042;-80
2023/07/23 12:44:03;;;;;;;0.90;0.77;;;;;;;;;;5116550;27;20043;-80
2023/07/23 12:46:29;;;;;;;3.42;0.80;;;;;;;;;;5116200;28;20059;-80
2023/07/23 12:48:56;;;;;;;2.17;0.75;;;;;;;;;;5098400;28;20404;-81
2023/07/23 12:51:23;;;;;;;0.70;0.70;;;;;;;;;;5115190;28;20035;-80
2023/07/23 12:53:49;;;;;;;1.50;0.80;;;;;;;;;;5116111;28;20366;-80
2023/07/23 12:56:16;;;;;;;1.77;0.65;;;;;;;;;;5099066;28;20048;-80
2023/07/23 12:58:42;;;;;;;1.17;1.00;;;;;;;;;;5115230;28;20051;-81
2023/07/23 13:01:08;;;;;;;1.55;0.75;;;;;;;;;;5115197;28;20055;-83
2023/07/23 13:03:34;;;;;;;1.65;1.55;;;;;;;;;;5114978;28;20054;-83
2023/07/23 13:06:00;;;;;;;2.17;1.98;;;;;;;;;;5098079;28;20393;-81
2023/07/23 13:08:26;;;;;;;1.60;1.50;;;;;;;;;;5098174;28;20139;-82
2023/07/23 13:10:52;;;;;;;2.42;2.28;;;;;;;;;;5114453;28;20489;-81
2023/07/23 13:13:19;;;;;;;2.45;2.25;;;;;;;;;;5114712;28;20106;-82
2023/07/23 13:15:45;;;;;;;2.67;2.47;;;;;;;;;;5114582;28;20073;-82
2023/07/23 13:18:11;;;;;;;3.53;2.63;;;;;;;;;;5115449;28;20043;-81
2023/07/23 13:20:37;;;;;;;3.05;2.95;;;;;;;;;;5097756;28;20450;-82
2023/07/23 13:23:04;;;;;;;2.50;2.40;;;;;;;;;;5114448;28;20055;-81
2023/07/23 13:25:30;;;;;;;2.50;2.30;;;;;;;;;;5097387;28;20122;-82
2023/07/23 13:27:56;;;;;;;3.33;3.13;;;;;;;;;;5115640;28;20054;-81
2023/07/23 13:30:22;;;;;;;3.05;2.85;;;;;;;;;;5114673;28;20116;-81
2023/07/23 13:32:48;;;;;;;3.05;2.92;;;;;;;;;;5114595;28;20043;-82
2023/07/23 13:35:14;;;;;;;3.95;3.75;;;;;;;;;;5097638;28;20343;-81
2023/07/23 13:37:40;;;;;;;4.68;4.38;;;;;;;;;;5115461;28;20079;-82
2023/07/23 13:40:07;;;;;;;4.80;4.50;;;;;;;;;;5098364;28;20115;-83
2023/07/23 13:42:33;;;;;;;3.95;3.75;;;;;;;;;;5115862;28;20052;-81
2023/07/23 13:44:59;;;;;;;4.63;3.97;;;;;;;;;;5114278;28;20465;-80
2023/07/23 13:47:25;;;;;;;4.18;3.78;;;;;;;;;;5116057;28;20075;-81
2023/07/23 13:49:51;;;;;;;3.90;3.70;;;;;;;;;;5115234;28;20047;-82
2023/07/23 13:52:23;;;;;;;4.10;3.80;;;;;;;;;;5097240;28;20043;-82
2023/07/23 13:54:49;;;;;;;3.72;3.53;;;;;;;;;;5114442;28;20469;-82
2023/07/23 13:57:15;;;;;;;3.80;3.60;;;;;;;;;;5114615;28;20051;-80
2023/07/23 13:59:41;;;;;;;4.03;3.72;;;;;;;;;;5115033;28;20100;-82
2023/07/23 14:02:07;;;;;;;4.22;3.90;;;;;;;;;;5113783;28;20048;-81
2023/07/23 14:04:33;;;;;;;3.95;3.75;;;;;;;;;;5114939;28;20058;-81
2023/07/23 14:06:59;;;;;;;2.67;2.47;;;;;;;;;;5097718;28;20054;-82
2023/07/23 14:09:25;;;;;;;3.90;3.70;;;;;;;;;;5113814;28;20050;-81
2023/07/23 14:11:52;;;;;;;3.58;3.38;;;;;;;;;;5113585;28;20044;-81
2023/07/23 14:14:18;;;;;;;3.03;2.88;;;;;;;;;;5114610;28;20462;-82
2023/07/23 14:16:44;;;;;;;3.83;3.42;;;;;;;;;;5113521;28;20100;-82
2023/07/23 14:19:10;;;;;;;2.92;2.72;;;;;;;;;;5113686;28;20047;-82
2023/07/23 14:21:36;;;;;;;3.13;2.90;;;;;;;;;;5113743;28;20135;-81
2023/07/23 14:24:03;;;;;;;2.47;2.38;;;;;;;;;;5113385;28;20104;-81
2023/07/23 14:26:29;;;;;;;3.17;2.97;;;;;;;;;;5115151;28;20051;-82
2023/07/23 14:28:55;;;;;;;2.55;2.45;;;;;;;;;;5113327;28;20184;-80
2023/07/23 14:31:21;;;;;;;2.20;2.10;;;;;;;;;;5096371;28;20565;-81
2023/07/23 14:33:47;;;;;;;2.30;2.20;;;;;;;;;;5113480;28;20043;-81
2023/07/23 14:36:13;;;;;;;2.22;2.10;;;;;;;;;;5114363;28;20206;-81
2023/07/23 14:38:39;;;;;;;2.20;2.00;;;;;;;;;;5113227;28;20152;-82
2023/07/23 14:41:05;;;;;;;1.55;1.45;;;;;;;;;;5113315;28;20051;-82
2023/07/23 14:43:33;;;;;;;2.10;2.00;;;;;;;;;;5113410;28;20043;-81